Time;durP1;ratioP1;P1;durP2;ratioP2;P2;SDS_P1;SDS_P2;PMS_P1;PMS_P2;Temp;Humidity;BMP_temperature;BMP_pressure;BME280_temperature;BME280_humidity;BME280_pressure;Samples;Min_cycle;Max_cycle;Signal;HPM_P1;HPM_P2
2024/01/31 00:01:21;;;;;;;3.63;0.30;;;;;;;;;;5056781;28;20040;-80
2024/01/31 00:03:47;;;;;;;6.28;0.40;;;;;;;;;;5073153;28;20036;-78
2024/01/31 00:06:14;;;;;;;6.07;0.55;;;;;;;;;;5074266;28;20040;-79
2024/01/31 00:08:40;;;;;;;3.80;0.40;;;;;;;;;;5073202;28;20032;-79
2024/01/31 00:11:08;;;;;;;6.15;0.30;;;;;;;;;;5073694;28;20044;-79
2024/01/31 00:13:34;;;;;;;4.82;0.55;;;;;;;;;;5074180;28;20043;-78
2024/01/31 00:16:00;;;;;;;3.95;0.40;;;;;;;;;;5073024;28;20377;-79
2024/01/31 00:18:26;;;;;;;4.07;0.50;;;;;;;;;;5072811;28;20345;-79
2024/01/31 00:20:52;;;;;;;4.07;0.30;;;;;;;;;;5072690;28;20050;-79
2024/01/31 00:23:19;;;;;;;6.07;0.40;;;;;;;;;;5074670;28;20040;-79
2024/01/31 00:25:45;;;;;;;8.80;0.50;;;;;;;;;;5074185;28;20476;-79
2024/01/31 00:28:12;;;;;;;6.18;0.40;;;;;;;;;;5073874;28;20055;-79
2024/01/31 00:30:38;;;;;;;3.45;0.30;;;;;;;;;;5072365;28;20087;-79
2024/01/31 00:33:04;;;;;;;5.60;0.50;;;;;;;;;;5073921;28;20048;-79
2024/01/31 00:35:31;;;;;;;5.15;0.30;;;;;;;;;;5073813;28;20380;-79
2024/01/31 00:37:57;;;;;;;9.27;0.60;;;;;;;;;;5056335;28;20045;-79
2024/01/31 00:40:23;;;;;;;2.95;0.45;;;;;;;;;;5073423;28;20067;-79
2024/01/31 00:42:49;;;;;;;3.92;0.30;;;;;;;;;;5073305;28;20076;-79
2024/01/31 00:45:15;;;;;;;4.85;0.30;;;;;;;;;;5073661;28;20053;-78
2024/01/31 00:47:41;;;;;;;5.47;0.40;;;;;;;;;;5073916;28;20040;-78
2024/01/31 00:50:08;;;;;;;6.13;0.40;;;;;;;;;;5072708;28;20057;-79
2024/01/31 00:52:34;;;;;;;5.75;0.40;;;;;;;;;;5073632;28;20419;-79
2024/01/31 00:55:00;;;;;;;4.63;0.30;;;;;;;;;;5072601;28;20040;-79
2024/01/31 00:57:26;;;;;;;3.40;0.30;;;;;;;;;;5073208;28;20040;-79
2024/01/31 00:59:52;;;;;;;4.35;0.40;;;;;;;;;;5073297;28;20098;-78
2024/01/31 01:02:18;;;;;;;6.60;0.30;;;;;;;;;;5054966;28;20040;-79
2024/01/31 01:04:44;;;;;;;3.60;0.40;;;;;;;;;;5072297;28;20051;-79
2024/01/31 01:07:10;;;;;;;3.25;0.28;;;;;;;;;;5072508;28;20055;-79
2024/01/31 01:09:36;;;;;;;6.13;0.40;;;;;;;;;;5072160;28;20044;-79
2024/01/31 01:12:03;;;;;;;3.80;0.40;;;;;;;;;;5072120;28;20131;-79
2024/01/31 01:14:29;;;;;;;2.80;0.30;;;;;;;;;;5072247;28;20051;-79
2024/01/31 01:16:55;;;;;;;4.57;0.30;;;;;;;;;;5071869;28;20048;-79
2024/01/31 01:19:21;;;;;;;4.22;0.30;;;;;;;;;;5072286;28;20047;-79
2024/01/31 01:21:47;;;;;;;5.63;0.60;;;;;;;;;;5106057;28;20094;-79
2024/01/31 01:24:14;;;;;;;3.72;0.32;;;;;;;;;;5073249;28;20086;-79
2024/01/31 01:26:40;;;;;;;4.20;0.63;;;;;;;;;;5073718;28;20045;-78
2024/01/31 01:29:07;;;;;;;5.53;0.40;;;;;;;;;;5073275;28;20041;-79
2024/01/31 01:31:33;;;;;;;7.18;0.40;;;;;;;;;;5072123;28;20083;-78
2024/01/31 01:33:59;;;;;;;6.90;0.40;;;;;;;;;;5072101;28;20036;-79
2024/01/31 01:36:25;;;;;;;4.18;0.40;;;;;;;;;;5071955;28;20056;-79
2024/01/31 01:38:51;;;;;;;6.28;0.50;;;;;;;;;;5106051;28;20040;-78
2024/01/31 01:41:17;;;;;;;8.13;0.40;;;;;;;;;;5055628;28;20488;-79
2024/01/31 01:43:43;;;;;;;5.85;0.45;;;;;;;;;;5075324;28;20549;-78
2024/01/31 01:46:11;;;;;;;3.80;0.30;;;;;;;;;;5059040;28;20087;-79
2024/01/31 01:48:38;;;;;;;4.80;0.60;;;;;;;;;;5076720;28;20055;-79
2024/01/31 01:51:04;;;;;;;4.07;0.43;;;;;;;;;;5075924;28;20044;-78
2024/01/31 01:53:33;;;;;;;6.05;0.30;;;;;;;;;;5076811;28;20442;-78
2024/01/31 01:55:59;;;;;;;5.72;0.40;;;;;;;;;;5075563;28;20067;-79
2024/01/31 01:58:25;;;;;;;3.42;0.30;;;;;;;;;;5076915;28;20044;-78
2024/01/31 02:00:52;;;;;;;4.60;0.30;;;;;;;;;;5076631;28;20562;-79
2024/01/31 02:03:18;;;;;;;3.78;0.40;;;;;;;;;;5076368;28;20539;-79
2024/01/31 02:05:44;;;;;;;2.22;0.30;;;;;;;;;;5058919;28;20089;-79
2024/01/31 02:08:11;;;;;;;3.10;0.30;;;;;;;;;;5075588;28;20048;-79
2024/01/31 02:10:37;;;;;;;2.97;0.30;;;;;;;;;;5075104;28;20048;-79
2024/01/31 02:13:03;;;;;;;4.07;0.28;;;;;;;;;;5075259;28;20043;-79
2024/01/31 02:15:29;;;;;;;3.80;0.30;;;;;;;;;;5075307;28;20055;-79
2024/01/31 02:17:55;;;;;;;5.97;0.77;;;;;;;;;;5074790;28;20472;-79
2024/01/31 02:20:22;;;;;;;2.78;0.30;;;;;;;;;;5075257;28;20133;-79
2024/01/31 02:22:48;;;;;;;3.10;0.30;;;;;;;;;;5076191;28;20036;-79
2024/01/31 02:25:14;;;;;;;2.60;0.22;;;;;;;;;;5075223;28;20048;-79
2024/01/31 02:27:41;;;;;;;3.08;0.30;;;;;;;;;;5076133;28;20036;-78
2024/01/31 02:30:07;;;;;;;5.88;0.30;;;;;;;;;;5074670;28;20052;-79
2024/01/31 02:32:34;;;;;;;3.75;0.20;;;;;;;;;;5075126;28;20044;-79
2024/01/31 02:35:00;;;;;;;2.63;0.20;;;;;;;;;;5076100;28;20040;-79
2024/01/31 02:37:26;;;;;;;2.00;0.20;;;;;;;;;;5075071;28;20076;-79
2024/01/31 02:39:52;;;;;;;5.70;0.47;;;;;;;;;;5074807;28;20472;-78
2024/01/31 02:42:18;;;;;;;2.72;0.28;;;;;;;;;;5108316;28;20122;-79
2024/01/31 02:44:44;;;;;;;6.60;0.45;;;;;;;;;;5075981;28;20053;-78
2024/01/31 02:47:10;;;;;;;4.22;0.30;;;;;;;;;;5075589;28;20048;-79
2024/01/31 02:49:36;;;;;;;3.97;0.30;;;;;;;;;;5074885;28;20045;-79
2024/01/31 02:52:03;;;;;;;3.45;0.30;;;;;;;;;;5074344;28;20037;-78
2024/01/31 02:54:29;;;;;;;4.97;0.40;;;;;;;;;;5074776;28;20086;-79
2024/01/31 02:56:55;;;;;;;2.22;0.30;;;;;;;;;;5075636;28;20048;-78
2024/01/31 02:59:22;;;;;;;3.30;0.30;;;;;;;;;;5074674;28;20040;-79
2024/01/31 03:01:49;;;;;;;3.63;0.47;;;;;;;;;;5075593;28;20087;-79
2024/01/31 03:04:15;;;;;;;3.20;0.40;;;;;;;;;;5075458;28;20044;-79
2024/01/31 03:06:41;;;;;;;1.98;0.30;;;;;;;;;;5074185;28;20048;-79
2024/01/31 03:09:09;;;;;;;5.88;0.50;;;;;;;;;;5075369;28;20109;-79
2024/01/31 03:11:35;;;;;;;3.33;0.30;;;;;;;;;;5074818;28;20090;-78
2024/01/31 03:14:01;;;;;;;4.97;0.30;;;;;;;;;;5074588;28;20381;-79
2024/01/31 03:16:27;;;;;;;6.15;0.40;;;;;;;;;;5074472;28;20044;-79
2024/01/31 03:18:55;;;;;;;4.80;0.40;;;;;;;;;;5075179;28;20044;-79
2024/01/31 03:21:22;;;;;;;4.22;0.40;;;;;;;;;;5074495;28;20411;-78
2024/01/31 03:23:48;;;;;;;4.00;0.30;;;;;;;;;;5075059;28;20358;-79
2024/01/31 03:26:14;;;;;;;3.58;0.20;;;;;;;;;;5073903;28;20071;-79
2024/01/31 03:28:40;;;;;;;4.70;0.30;;;;;;;;;;5057515;28;20048;-79
2024/01/31 03:31:06;;;;;;;2.47;0.50;;;;;;;;;;5074126;28;20379;-79
2024/01/31 03:33:32;;;;;;;2.63;0.30;;;;;;;;;;5074153;28;20438;-79
2024/01/31 03:35:58;;;;;;;4.93;0.28;;;;;;;;;;5074950;28;20045;-79
2024/01/31 03:38:24;;;;;;;1.55;0.20;;;;;;;;;;5073784;28;20127;-79
2024/01/31 03:40:50;;;;;;;6.30;0.20;;;;;;;;;;5074401;28;20051;-79
2024/01/31 03:43:16;;;;;;;3.70;0.20;;;;;;;;;;5074671;28;20040;-78
2024/01/31 03:45:42;;;;;;;4.93;0.30;;;;;;;;;;5074308;28;20084;-78
2024/01/31 03:48:08;;;;;;;1.42;0.20;;;;;;;;;;5073601;28;20154;-79
2024/01/31 03:50:34;;;;;;;3.00;0.20;;;;;;;;;;5073569;28;20052;-78
2024/01/31 03:53:00;;;;;;;1.95;0.13;;;;;;;;;;5073665;28;20087;-79
2024/01/31 03:55:26;;;;;;;4.88;0.30;;;;;;;;;;5074433;28;20052;-78
2024/01/31 03:57:52;;;;;;;1.48;0.20;;;;;;;;;;5073443;28;20036;-79
2024/01/31 04:00:18;;;;;;;3.47;0.28;;;;;;;;;;5057044;28;20422;-78
2024/01/31 04:02:45;;;;;;;5.55;0.20;;;;;;;;;;5074106;28;20464;-78
2024/01/31 04:05:11;;;;;;;1.33;0.20;;;;;;;;;;5073225;28;20487;-79
2024/01/31 04:07:37;;;;;;;2.58;0.20;;;;;;;;;;5074523;28;20047;-79
2024/01/31 04:10:03;;;;;;;3.65;0.30;;;;;;;;;;5073277;28;20097;-79
2024/01/31 04:12:29;;;;;;;3.67;0.10;;;;;;;;;;5073657;28;20080;-79
2024/01/31 04:14:55;;;;;;;1.95;0.20;;;;;;;;;;5074137;28;20106;-78
2024/01/31 04:17:22;;;;;;;1.67;0.10;;;;;;;;;;5074099;28;20047;-78
2024/01/31 04:19:48;;;;;;;2.63;0.20;;;;;;;;;;5072873;28;20076;-79
2024/01/31 04:22:16;;;;;;;1.65;0.17;;;;;;;;;;5074033;28;20048;-79
2024/01/31 04:24:43;;;;;;;3.63;0.20;;;;;;;;;;5072702;28;20090;-78
2024/01/31 04:27:10;;;;;;;3.05;0.38;;;;;;;;;;5073012;28;20041;-78
2024/01/31 04:29:38;;;;;;;3.13;0.20;;;;;;;;;;5073806;28;20047;-79
2024/01/31 04:32:05;;;;;;;2.15;0.20;;;;;;;;;;5074403;28;20053;-79
2024/01/31 04:34:31;;;;;;;1.80;0.17;;;;;;;;;;5072944;28;20048;-79
2024/01/31 04:36:57;;;;;;;1.88;0.20;;;;;;;;;;5072970;28;20093;-79
2024/01/31 04:39:23;;;;;;;1.90;0.20;;;;;;;;;;5073791;28;20046;-78
2024/01/31 04:41:49;;;;;;;1.95;0.35;;;;;;;;;;5072166;28;20123;-79
2024/01/31 04:44:15;;;;;;;3.75;0.20;;;;;;;;;;5073429;28;20048;-78
2024/01/31 04:46:41;;;;;;;2.47;0.40;;;;;;;;;;5073790;28;20081;-78
2024/01/31 04:49:07;;;;;;;2.85;0.30;;;;;;;;;;5072825;28;20044;-78
2024/01/31 04:51:33;;;;;;;2.25;0.50;;;;;;;;;;5072720;28;20084;-79
2024/01/31 04:53:59;;;;;;;5.70;0.47;;;;;;;;;;5072780;28;20044;-79
2024/01/31 04:56:25;;;;;;;3.40;0.40;;;;;;;;;;5056014;28;20419;-79
2024/01/31 04:58:51;;;;;;;3.38;0.30;;;;;;;;;;5073897;28;20059;-79
2024/01/31 05:01:17;;;;;;;1.75;0.20;;;;;;;;;;5055864;28;20123;-79
2024/01/31 05:03:43;;;;;;;2.95;0.30;;;;;;;;;;5072609;28;20094;-79
2024/01/31 05:06:11;;;;;;;1.02;0.20;;;;;;;;;;5073149;28;20040;-79
2024/01/31 05:08:37;;;;;;;2.28;0.20;;;;;;;;;;5072379;28;20051;-79
2024/01/31 05:11:03;;;;;;;5.57;0.40;;;;;;;;;;5071761;28;20066;-79
2024/01/31 05:13:29;;;;;;;2.10;0.30;;;;;;;;;;5072462;28;20430;-79
2024/01/31 05:15:55;;;;;;;4.18;0.30;;;;;;;;;;5108104;28;20449;-78
2024/01/31 05:18:21;;;;;;;3.08;0.35;;;;;;;;;;5077829;28;20067;-79
2024/01/31 05:20:48;;;;;;;6.20;0.65;;;;;;;;;;5110495;28;20128;-78
2024/01/31 05:23:14;;;;;;;4.60;0.40;;;;;;;;;;5077209;28;20037;-79
2024/01/31 05:25:40;;;;;;;3.88;0.40;;;;;;;;;;5076703;28;20491;-79
2024/01/31 05:28:06;;;;;;;5.88;0.50;;;;;;;;;;5076207;28;20055;-78
2024/01/31 05:30:32;;;;;;;3.38;0.30;;;;;;;;;;5076507;28;20490;-79
2024/01/31 05:32:58;;;;;;;3.30;0.30;;;;;;;;;;5076380;28;20053;-78
2024/01/31 05:35:25;;;;;;;4.05;0.35;;;;;;;;;;5076095;28;20114;-79
2024/01/31 05:37:51;;;;;;;3.38;0.35;;;;;;;;;;5075837;28;20048;-78
2024/01/31 05:40:18;;;;;;;1.77;0.30;;;;;;;;;;5075863;28;20037;-79
2024/01/31 05:42:44;;;;;;;2.15;0.30;;;;;;;;;;5075323;28;20044;-79
2024/01/31 05:45:10;;;;;;;3.78;0.30;;;;;;;;;;5075582;28;20084;-79
2024/01/31 05:47:36;;;;;;;4.28;0.40;;;;;;;;;;5059201;28;20475;-79
2024/01/31 05:50:02;;;;;;;2.63;0.30;;;;;;;;;;5076229;28;20037;-79
2024/01/31 05:52:29;;;;;;;2.95;0.30;;;;;;;;;;5075682;28;20083;-79
2024/01/31 05:54:55;;;;;;;4.35;0.60;;;;;;;;;;5076675;28;20128;-79
2024/01/31 05:57:21;;;;;;;7.25;0.60;;;;;;;;;;5075622;28;20093;-79
2024/01/31 05:59:47;;;;;;;4.00;0.43;;;;;;;;;;5075554;28;20037;-79
2024/01/31 06:02:13;;;;;;;4.35;0.57;;;;;;;;;;5076505;28;20041;-78
2024/01/31 06:04:40;;;;;;;1.98;0.30;;;;;;;;;;5075372;28;20037;-79
2024/01/31 06:07:06;;;;;;;4.90;0.35;;;;;;;;;;5076430;28;20048;-79
2024/01/31 06:09:32;;;;;;;2.20;0.60;;;;;;;;;;5075578;28;20044;-79
2024/01/31 06:11:58;;;;;;;3.20;0.50;;;;;;;;;;5074709;28;20040;-79
2024/01/31 06:14:24;;;;;;;1.98;0.40;;;;;;;;;;5076334;28;20044;-78
2024/01/31 06:16:50;;;;;;;3.40;0.40;;;;;;;;;;5075394;28;20115;-78
2024/01/31 06:19:16;;;;;;;5.20;0.40;;;;;;;;;;5075424;28;20044;-79
2024/01/31 06:21:42;;;;;;;6.40;0.68;;;;;;;;;;5076342;28;20036;-78
2024/01/31 06:24:08;;;;;;;1.98;0.80;;;;;;;;;;5075987;28;20124;-78
2024/01/31 06:26:41;;;;;;;4.05;0.70;;;;;;;;;;5074407;28;20041;-78
2024/01/31 06:29:07;;;;;;;2.72;0.43;;;;;;;;;;5075556;28;20088;-79
2024/01/31 06:31:40;;;;;;;3.13;0.70;;;;;;;;;;5075635;28;20067;-79
2024/01/31 06:34:06;;;;;;;1.67;0.50;;;;;;;;;;5073787;28;20048;-79
2024/01/31 06:36:32;;;;;;;3.92;0.80;;;;;;;;;;5074521;28;20492;-79
2024/01/31 06:38:59;;;;;;;5.38;0.75;;;;;;;;;;5075543;28;20047;-79
2024/01/31 06:41:26;;;;;;;2.28;0.50;;;;;;;;;;5074990;28;20045;-79
2024/01/31 06:43:52;;;;;;;4.15;0.68;;;;;;;;;;5075054;28;20124;-78
2024/01/31 06:46:18;;;;;;;4.45;0.70;;;;;;;;;;5057526;28;20040;-78
2024/01/31 06:48:44;;;;;;;2.67;0.68;;;;;;;;;;5074432;28;20047;-79
2024/01/31 06:51:10;;;;;;;4.10;0.52;;;;;;;;;;5074306;28;20044;-79
2024/01/31 06:53:36;;;;;;;2.08;0.70;;;;;;;;;;5075290;28;20067;-79
2024/01/31 06:56:02;;;;;;;2.85;0.65;;;;;;;;;;5074957;28;20070;-79
2024/01/31 06:58:28;;;;;;;3.00;0.60;;;;;;;;;;5075971;28;20051;-78
2024/01/31 07:00:57;;;;;;;2.95;0.60;;;;;;;;;;5074332;28;20109;-78
2024/01/31 07:03:24;;;;;;;6.70;1.05;;;;;;;;;;5071015;28;20897;-80
2024/01/31 07:05:50;;;;;;;3.70;0.73;;;;;;;;;;5084245;28;20032;-81
2024/01/31 07:08:16;;;;;;;4.00;0.80;;;;;;;;;;5082489;28;20052;-80
2024/01/31 07:10:42;;;;;;;3.63;0.60;;;;;;;;;;5048724;28;20475;-80
2024/01/31 07:13:08;;;;;;;2.75;0.73;;;;;;;;;;5083093;28;20404;-80
2024/01/31 07:15:34;;;;;;;4.20;0.68;;;;;;;;;;5081943;28;20047;-80
2024/01/31 07:18:00;;;;;;;3.90;0.73;;;;;;;;;;5083896;28;20043;-82
2024/01/31 07:20:26;;;;;;;2.53;0.60;;;;;;;;;;5063524;28;20044;-81
2024/01/31 07:22:52;;;;;;;3.15;0.68;;;;;;;;;;5081504;28;20052;-80
2024/01/31 07:25:18;;;;;;;5.30;0.93;;;;;;;;;;5082744;28;20040;-81
2024/01/31 07:27:44;;;;;;;4.00;1.52;;;;;;;;;;5082032;28;20101;-81
2024/01/31 07:30:11;;;;;;;5.15;1.10;;;;;;;;;;5081181;28;20396;-83
2024/01/31 07:32:38;;;;;;;6.72;1.15;;;;;;;;;;5084083;28;20072;-83
2024/01/31 07:35:04;;;;;;;3.08;0.90;;;;;;;;;;5084992;28;20051;-84
2024/01/31 07:37:30;;;;;;;3.15;1.00;;;;;;;;;;5067739;28;20040;-80
2024/01/31 07:39:57;;;;;;;3.60;1.58;;;;;;;;;;5073636;28;20049;-80
2024/01/31 07:42:23;;;;;;;3.53;1.20;;;;;;;;;;5080308;28;20106;-80
2024/01/31 07:44:49;;;;;;;4.38;1.95;;;;;;;;;;5061353;28;20053;-81
2024/01/31 07:47:15;;;;;;;4.10;1.90;;;;;;;;;;5073612;28;20048;-81
2024/01/31 07:49:42;;;;;;;5.72;2.60;;;;;;;;;;5073531;28;20047;-81
2024/01/31 07:52:08;;;;;;;4.95;2.92;;;;;;;;;;5041101;28;20052;-82
2024/01/31 07:54:34;;;;;;;4.68;2.67;;;;;;;;;;5056603;28;20127;-82
2024/01/31 07:57:00;;;;;;;6.22;2.67;;;;;;;;;;5073164;28;20040;-80
2024/01/31 07:59:26;;;;;;;3.80;2.70;;;;;;;;;;5072920;28;20040;-82
2024/01/31 08:01:52;;;;;;;7.18;3.35;;;;;;;;;;5072666;28;20036;-84
2024/01/31 08:04:18;;;;;;;7.32;3.58;;;;;;;;;;5056047;28;20036;-82
2024/01/31 08:06:44;;;;;;;3.97;2.42;;;;;;;;;;5055847;28;20060;-82
2024/01/31 08:09:11;;;;;;;6.68;2.88;;;;;;;;;;5073205;28;20070;-86
2024/01/31 08:11:44;;;;;;;3.97;3.13;;;;;;;;;;5056058;28;20052;-80
2024/01/31 08:14:10;;;;;;;5.15;2.53;;;;;;;;;;5056479;28;20063;-79
2024/01/31 08:16:36;;;;;;;7.05;3.35;;;;;;;;;;5072321;28;20040;-82
2024/01/31 08:19:03;;;;;;;7.30;3.28;;;;;;;;;;5072754;28;20422;-80
2024/01/31 08:21:33;;;;;;;7.47;4.10;;;;;;;;;;5073011;28;20094;-80
2024/01/31 08:24:02;;;;;;;9.80;3.47;;;;;;;;;;5106725;28;20040;-82
2024/01/31 08:26:28;;;;;;;4.38;3.75;;;;;;;;;;5056376;28;20398;-82
2024/01/31 08:28:55;;;;;;;5.65;3.30;;;;;;;;;;5072911;28;20051;-83
2024/01/31 08:31:21;;;;;;;6.68;3.03;;;;;;;;;;5056171;28;20052;-81
2024/01/31 08:33:47;;;;;;;5.10;3.15;;;;;;;;;;5055759;28;20048;-82
2024/01/31 08:36:13;;;;;;;8.20;2.90;;;;;;;;;;5055928;28;20059;-81
2024/01/31 08:38:43;;;;;;;6.65;3.53;;;;;;;;;;5056109;28;20052;-79
2024/01/31 08:41:10;;;;;;;5.80;3.47;;;;;;;;;;5055519;28;20401;-80
2024/01/31 08:43:36;;;;;;;7.43;4.43;;;;;;;;;;5054696;28;20047;-80
2024/01/31 08:46:03;;;;;;;7.10;3.40;;;;;;;;;;5071972;28;20175;-80
2024/01/31 08:48:34;;;;;;;6.22;3.55;;;;;;;;;;5072537;28;20099;-80
2024/01/31 08:51:02;;;;;;;7.25;3.35;;;;;;;;;;5072884;28;20490;-79
2024/01/31 08:53:29;;;;;;;5.68;3.28;;;;;;;;;;5056374;28;20053;-79
2024/01/31 08:55:55;;;;;;;6.57;3.72;;;;;;;;;;5073531;28;20178;-80
2024/01/31 08:58:21;;;;;;;7.03;3.33;;;;;;;;;;5072560;28;20040;-80
2024/01/31 09:00:47;;;;;;;7.18;4.80;;;;;;;;;;5072752;28;20048;-80
2024/01/31 09:03:13;;;;;;;6.07;3.65;;;;;;;;;;5072059;28;20072;-80
2024/01/31 09:05:39;;;;;;;5.28;3.50;;;;;;;;;;5072499;28;20370;-80
2024/01/31 09:08:05;;;;;;;8.40;3.28;;;;;;;;;;5072471;28;20131;-79
2024/01/31 09:10:31;;;;;;;6.18;3.47;;;;;;;;;;5073555;28;20044;-79
2024/01/31 09:12:57;;;;;;;6.72;3.58;;;;;;;;;;5072058;28;20051;-80
2024/01/31 09:15:24;;;;;;;7.38;4.22;;;;;;;;;;5072179;28;20451;-80
2024/01/31 09:17:51;;;;;;;7.70;3.65;;;;;;;;;;5073626;28;20040;-80
2024/01/31 09:20:17;;;;;;;6.07;2.92;;;;;;;;;;5055708;28;20455;-80
2024/01/31 09:22:44;;;;;;;8.27;3.30;;;;;;;;;;5071990;28;20079;-79
2024/01/31 09:25:14;;;;;;;6.80;2.65;;;;;;;;;;5055659;28;20055;-79
2024/01/31 09:27:41;;;;;;;7.30;3.20;;;;;;;;;;5055820;28;20080;-80
2024/01/31 09:30:07;;;;;;;3.95;2.58;;;;;;;;;;5072068;28;20090;-78
2024/01/31 09:32:33;;;;;;;7.43;2.70;;;;;;;;;;5073341;28;20055;-80
2024/01/31 09:35:00;;;;;;;4.75;2.67;;;;;;;;;;5073028;28;20055;-80
2024/01/31 09:37:26;;;;;;;6.05;2.63;;;;;;;;;;5073129;28;20070;-79
2024/01/31 09:39:54;;;;;;;8.00;3.55;;;;;;;;;;5073270;28;20059;-80
2024/01/31 09:42:21;;;;;;;6.63;3.80;;;;;;;;;;5055180;28;20373;-80
2024/01/31 09:44:47;;;;;;;14.65;6.32;;;;;;;;;;5071830;28;20059;-80
2024/01/31 09:47:13;;;;;;;8.65;4.20;;;;;;;;;;5072086;28;20056;-80
2024/01/31 09:49:39;;;;;;;7.72;3.22;;;;;;;;;;5039228;28;20113;-79
2024/01/31 09:52:06;;;;;;;6.13;3.47;;;;;;;;;;5055548;28;20393;-80
2024/01/31 09:54:32;;;;;;;6.07;2.67;;;;;;;;;;5072123;28;20392;-79
2024/01/31 09:56:59;;;;;;;5.63;3.00;;;;;;;;;;5072079;28;20052;-79
2024/01/31 09:59:26;;;;;;;7.18;3.67;;;;;;;;;;5055377;28;20051;-80
2024/01/31 10:01:53;;;;;;;7.63;3.38;;;;;;;;;;5055435;28;20528;-80
2024/01/31 10:04:19;;;;;;;5.18;2.45;;;;;;;;;;5075419;28;20048;-80
2024/01/31 10:06:45;;;;;;;6.55;3.25;;;;;;;;;;5075540;28;20052;-79
2024/01/31 10:09:11;;;;;;;6.78;2.83;;;;;;;;;;5075538;28;20182;-80
2024/01/31 10:11:37;;;;;;;5.95;3.17;;;;;;;;;;5076199;28;20048;-80
2024/01/31 10:14:03;;;;;;;5.82;3.00;;;;;;;;;;5075514;28;20374;-80
2024/01/31 10:16:30;;;;;;;3.40;2.75;;;;;;;;;;5075704;28;20048;-79
2024/01/31 10:18:56;;;;;;;3.10;2.80;;;;;;;;;;5075069;28;20131;-79
2024/01/31 10:21:22;;;;;;;3.67;3.15;;;;;;;;;;5076042;28;20420;-79
2024/01/31 10:23:58;;;;;;;6.30;3.92;;;;;;;;;;5058507;28;20082;-79
2024/01/31 10:26:25;;;;;;;4.57;3.47;;;;;;;;;;5075316;28;20137;-80
2024/01/31 10:28:51;;;;;;;4.97;3.95;;;;;;;;;;5058542;28;20131;-80
2024/01/31 10:31:18;;;;;;;4.43;3.95;;;;;;;;;;5075146;28;20044;-80
2024/01/31 10:33:45;;;;;;;5.00;3.40;;;;;;;;;;5074998;28;20037;-80
2024/01/31 10:36:11;;;;;;;3.92;3.55;;;;;;;;;;5075802;28;20465;-79
2024/01/31 10:38:40;;;;;;;6.25;3.95;;;;;;;;;;5075237;28;20098;-79
2024/01/31 10:41:08;;;;;;;4.00;3.70;;;;;;;;;;5074823;28;20075;-79
2024/01/31 10:43:36;;;;;;;5.47;4.13;;;;;;;;;;5074429;28;20080;-80
2024/01/31 10:46:02;;;;;;;5.38;3.72;;;;;;;;;;5074684;28;20071;-79
2024/01/31 10:48:28;;;;;;;4.20;3.80;;;;;;;;;;5057521;28;20062;-80
2024/01/31 10:50:56;;;;;;;6.72;4.70;;;;;;;;;;5057494;28;20048;-79
2024/01/31 10:53:23;;;;;;;5.25;4.55;;;;;;;;;;5074281;28;20048;-79
2024/01/31 10:55:50;;;;;;;6.00;5.32;;;;;;;;;;5074474;28;20049;-79
2024/01/31 10:58:16;;;;;;;7.80;6.55;;;;;;;;;;5075566;28;20047;-79
2024/01/31 11:00:48;;;;;;;7.55;6.13;;;;;;;;;;5057975;28;20102;-79
2024/01/31 11:03:18;;;;;;;6.32;5.70;;;;;;;;;;5074092;28;20044;-79
2024/01/31 11:05:44;;;;;;;7.32;5.68;;;;;;;;;;5074516;28;20541;-79
2024/01/31 11:08:17;;;;;;;6.93;6.22;;;;;;;;;;5074971;28;20056;-79
2024/01/31 11:10:43;;;;;;;9.85;6.43;;;;;;;;;;5073600;28;20171;-80
2024/01/31 11:13:10;;;;;;;6.05;5.55;;;;;;;;;;5057481;28;20067;-79
2024/01/31 11:15:36;;;;;;;4.97;4.57;;;;;;;;;;5074313;28;20041;-79
2024/01/31 11:18:09;;;;;;;5.90;5.25;;;;;;;;;;5073926;28;20047;-79
2024/01/31 11:20:36;;;;;;;6.30;5.03;;;;;;;;;;5071872;28;20047;-79
2024/01/31 11:23:03;;;;;;;6.82;5.40;;;;;;;;;;5073296;28;20033;-79
2024/01/31 11:25:37;;;;;;;5.90;4.20;;;;;;;;;;5073722;28;20127;-79
2024/01/31 11:28:06;;;;;;;5.22;4.78;;;;;;;;;;5073744;28;20041;-79
2024/01/31 11:30:33;;;;;;;6.10;5.13;;;;;;;;;;5074317;28;20047;-79
2024/01/31 11:33:03;;;;;;;4.97;4.40;;;;;;;;;;5073625;28;20036;-79
2024/01/31 11:35:29;;;;;;;5.50;5.00;;;;;;;;;;5074463;28;20044;-80
2024/01/31 11:38:02;;;;;;;5.57;4.72;;;;;;;;;;5073812;28;20079;-79
2024/01/31 11:40:28;;;;;;;8.05;5.53;;;;;;;;;;5073759;28;20136;-79
2024/01/31 11:42:56;;;;;;;5.80;5.20;;;;;;;;;;5072899;28;20048;-80
2024/01/31 11:45:23;;;;;;;5.78;5.28;;;;;;;;;;5073343;28;20048;-79
2024/01/31 11:47:50;;;;;;;6.05;5.45;;;;;;;;;;5073733;28;20048;-79
2024/01/31 11:50:16;;;;;;;6.43;5.38;;;;;;;;;;5073363;28;20052;-79
2024/01/31 11:52:42;;;;;;;6.65;5.55;;;;;;;;;;5073538;28;20542;-79
2024/01/31 11:55:11;;;;;;;7.35;5.15;;;;;;;;;;5056608;28;20109;-79
2024/01/31 11:57:37;;;;;;;6.07;5.47;;;;;;;;;;5073084;28;20044;-79
2024/01/31 12:00:04;;;;;;;8.48;5.80;;;;;;;;;;5037699;28;20098;-79
2024/01/31 12:02:31;;;;;;;7.75;5.95;;;;;;;;;;5072906;28;20540;-80
2024/01/31 12:04:57;;;;;;;5.47;4.78;;;;;;;;;;5073258;28;20507;-79
2024/01/31 12:07:24;;;;;;;6.13;5.53;;;;;;;;;;5056512;28;20049;-79
2024/01/31 12:09:50;;;;;;;5.25;4.85;;;;;;;;;;5073232;28;20435;-79
2024/01/31 12:12:16;;;;;;;6.57;5.75;;;;;;;;;;5072832;28;20051;-79
2024/01/31 12:14:43;;;;;;;6.75;5.45;;;;;;;;;;5074053;28;20110;-79
2024/01/31 12:17:22;;;;;;;6.70;6.10;;;;;;;;;;5056534;28;20055;-79
2024/01/31 12:19:48;;;;;;;7.15;5.82;;;;;;;;;;5073047;28;20070;-79
2024/01/31 12:22:15;;;;;;;6.53;5.97;;;;;;;;;;5073126;28;20438;-79
2024/01/31 12:24:41;;;;;;;7.22;5.65;;;;;;;;;;5072168;28;20507;-79
2024/01/31 12:27:07;;;;;;;6.28;5.65;;;;;;;;;;5072764;28;20404;-79
2024/01/31 12:29:33;;;;;;;6.13;5.63;;;;;;;;;;5073454;28;20048;-79
2024/01/31 12:31:59;;;;;;;5.82;5.43;;;;;;;;;;5072928;28;20048;-79
2024/01/31 12:34:25;;;;;;;6.82;6.13;;;;;;;;;;5073060;28;20076;-79
2024/01/31 12:36:52;;;;;;;6.05;5.25;;;;;;;;;;5072576;28;20041;-79
2024/01/31 12:39:20;;;;;;;7.75;5.50;;;;;;;;;;5073756;28;20065;-79
2024/01/31 12:41:46;;;;;;;8.90;6.22;;;;;;;;;;5055260;28;20547;-79
2024/01/31 12:44:13;;;;;;;7.20;6.53;;;;;;;;;;5055467;28;20036;-79
2024/01/31 12:46:40;;;;;;;7.35;6.75;;;;;;;;;;5072817;28;20060;-79
2024/01/31 12:49:06;;;;;;;7.40;6.80;;;;;;;;;;5056200;28;20045;-79
2024/01/31 12:51:32;;;;;;;7.15;6.55;;;;;;;;;;5072611;28;20091;-79
2024/01/31 12:53:58;;;;;;;8.43;7.30;;;;;;;;;;5056215;28;20040;-79
2024/01/31 12:56:24;;;;;;;7.05;6.35;;;;;;;;;;5072730;28;20044;-79
2024/01/31 12:58:50;;;;;;;9.48;6.45;;;;;;;;;;5072721;28;20131;-79
2024/01/31 13:01:17;;;;;;;7.68;6.95;;;;;;;;;;5072711;28;20037;-79
2024/01/31 13:03:43;;;;;;;7.72;7.00;;;;;;;;;;5055647;28;20398;-79
2024/01/31 13:06:09;;;;;;;8.13;7.43;;;;;;;;;;5072578;28;20179;-79
2024/01/31 13:08:36;;;;;;;9.80;7.18;;;;;;;;;;5072226;28;20097;-79
2024/01/31 13:11:02;;;;;;;8.27;7.20;;;;;;;;;;5073112;28;20101;-79
2024/01/31 13:13:28;;;;;;;9.23;7.60;;;;;;;;;;5072979;28;20049;-79
2024/01/31 13:15:54;;;;;;;8.48;7.60;;;;;;;;;;5072388;28;20049;-79
2024/01/31 13:18:20;;;;;;;8.38;7.57;;;;;;;;;;5055493;28;20056;-79
2024/01/31 13:20:47;;;;;;;7.90;7.15;;;;;;;;;;5106531;28;20445;-79
2024/01/31 13:23:15;;;;;;;7.65;6.93;;;;;;;;;;5072406;28;20052;-79
2024/01/31 13:25:41;;;;;;;7.20;6.60;;;;;;;;;;5072318;28;20041;-79
2024/01/31 13:28:08;;;;;;;10.93;7.13;;;;;;;;;;5055692;28;20477;-78
2024/01/31 13:30:34;;;;;;;7.88;7.18;;;;;;;;;;5073753;28;20459;-79
2024/01/31 13:33:00;;;;;;;8.07;7.28;;;;;;;;;;5072130;28;20102;-79
2024/01/31 13:35:26;;;;;;;7.82;7.10;;;;;;;;;;5055537;28;20082;-79
2024/01/31 13:37:52;;;;;;;8.30;7.55;;;;;;;;;;5109464;28;20045;-79
2024/01/31 13:40:18;;;;;;;8.35;6.40;;;;;;;;;;5075728;28;20048;-79
2024/01/31 13:42:47;;;;;;;8.82;7.57;;;;;;;;;;5075478;28;20040;-79
2024/01/31 13:45:13;;;;;;;9.70;7.90;;;;;;;;;;5075184;28;20052;-78
2024/01/31 13:47:40;;;;;;;9.73;7.75;;;;;;;;;;5075216;28;20055;-79
2024/01/31 13:50:06;;;;;;;9.32;8.43;;;;;;;;;;5076527;28;20048;-79
2024/01/31 13:52:32;;;;;;;11.43;8.45;;;;;;;;;;5042367;28;20134;-79
2024/01/31 13:54:58;;;;;;;9.95;7.40;;;;;;;;;;5075475;28;20044;-79
2024/01/31 13:57:24;;;;;;;9.88;8.88;;;;;;;;;;5075414;28;20495;-79
2024/01/31 13:59:50;;;;;;;10.63;8.73;;;;;;;;;;5076004;28;20041;-79
2024/01/31 14:02:16;;;;;;;11.57;9.55;;;;;;;;;;5075358;28;20036;-79
2024/01/31 14:04:42;;;;;;;11.85;9.60;;;;;;;;;;5057987;28;20047;-79
2024/01/31 14:07:08;;;;;;;10.25;9.18;;;;;;;;;;5058275;28;20102;-79
2024/01/31 14:09:34;;;;;;;14.90;11.20;;;;;;;;;;5058927;28;20136;-79
2024/01/31 14:12:03;;;;;;;14.18;11.70;;;;;;;;;;5058334;28;20060;-79
2024/01/31 14:14:29;;;;;;;15.75;11.02;;;;;;;;;;5058712;28;20055;-79
2024/01/31 14:16:56;;;;;;;12.80;11.45;;;;;;;;;;5059331;28;20049;-79
2024/01/31 14:19:22;;;;;;;13.35;11.73;;;;;;;;;;5042427;28;20084;-79
2024/01/31 14:21:48;;;;;;;14.35;12.43;;;;;;;;;;5058700;28;20054;-79
2024/01/31 14:24:14;;;;;;;18.48;12.52;;;;;;;;;;5108577;28;20473;-79
2024/01/31 14:26:41;;;;;;;13.40;11.98;;;;;;;;;;5074910;28;20080;-79
2024/01/31 14:29:07;;;;;;;17.00;13.43;;;;;;;;;;5075450;28;20049;-79
2024/01/31 14:31:33;;;;;;;16.15;13.10;;;;;;;;;;5074940;28;20472;-79
2024/01/31 14:33:59;;;;;;;17.60;14.27;;;;;;;;;;5042122;28;20510;-79
2024/01/31 14:36:25;;;;;;;14.88;13.02;;;;;;;;;;5109391;28;20048;-79